Time;durP1;ratioP1;P1;durP2;ratioP2;P2;SDS_P1;SDS_P2;PMS_P1;PMS_P2;Temp;Humidity;BMP_temperature;BMP_pressure;BME280_temperature;BME280_humidity;BME280_pressure;Samples;Min_cycle;Max_cycle;Signal;HPM_P1;HPM_P2
2022/11/12 00:00:39;;;;;;;16.85;9.45;;;;;;;0.52;100.00;100196.94;4220834;28;20539;-71
2022/11/12 00:02:40;;;;;;;16.15;8.73;;;;;;;0.47;100.00;100186.00;4220082;28;20047;-72
2022/11/12 00:04:40;;;;;;;12.75;8.40;;;;;;;0.45;100.00;100195.56;4221758;28;20540;-71
2022/11/12 00:06:40;;;;;;;14.98;8.82;;;;;;;0.45;100.00;100192.81;4221022;28;20043;-71
2022/11/12 00:08:40;;;;;;;14.43;8.60;;;;;;;0.45;100.00;100192.81;4220742;28;20046;-71
2022/11/12 00:10:41;;;;;;;15.43;8.50;;;;;;;0.43;100.00;100195.00;4221250;28;20689;-71
2022/11/12 00:12:41;;;;;;;13.05;7.85;;;;;;;0.43;100.00;100197.72;4219832;28;20058;-71
2022/11/12 00:14:41;;;;;;;14.85;7.45;;;;;;;0.40;100.00;100193.63;4220830;28;20039;-71
2022/11/12 00:16:42;;;;;;;12.63;7.47;;;;;;;0.42;100.00;100199.63;4220928;28;20430;-71
2022/11/12 00:18:42;;;;;;;15.40;8.23;;;;;;;0.34;100.00;100196.63;4219096;28;20071;-71
2022/11/12 00:20:43;;;;;;;12.65;8.07;;;;;;;0.32;100.00;100204.22;4219554;28;20130;-72
2022/11/12 00:22:43;;;;;;;16.17;8.02;;;;;;;0.30;100.00;100206.41;4219440;28;20123;-71
2022/11/12 00:24:43;;;;;;;12.50;7.30;;;;;;;0.30;100.00;100201.78;4220969;28;20047;-72
2022/11/12 00:26:44;;;;;;;15.73;7.72;;;;;;;0.34;100.00;100202.88;4220388;28;20066;-73
2022/11/12 00:28:44;;;;;;;13.05;7.75;;;;;;;0.37;100.00;100202.34;4220493;28;20545;-72
2022/11/12 00:30:44;;;;;;;11.07;7.47;;;;;;;0.35;100.00;100201.78;4220756;28;20379;-72
2022/11/12 00:32:45;;;;;;;13.63;8.32;;;;;;;0.33;100.00;100198.50;4219418;28;20047;-72
2022/11/12 00:34:45;;;;;;;12.55;7.60;;;;;;;0.32;100.00;100199.59;4219833;28;20081;-72
2022/11/12 00:36:45;;;;;;;12.35;8.13;;;;;;;0.32;100.00;100193.31;4220582;28;20051;-72
2022/11/12 00:38:45;;;;;;;11.60;8.00;;;;;;;0.27;100.00;100185.97;4220940;27;20119;-72
2022/11/12 00:40:46;;;;;;;10.73;7.25;;;;;;;0.25;100.00;100193.59;4219080;28;20421;-71
2022/11/12 00:42:46;;;;;;;11.18;7.47;;;;;;;0.23;100.00;100204.75;4219188;28;20047;-72
2022/11/12 00:44:48;;;;;;;13.20;7.82;;;;;;;0.25;100.00;100204.50;4220600;28;20043;-72
2022/11/12 00:46:49;;;;;;;12.20;8.02;;;;;;;0.26;100.00;100201.50;4219966;28;20453;-72
2022/11/12 00:48:49;;;;;;;11.20;7.60;;;;;;;0.31;100.00;100191.69;4220038;28;20157;-72
2022/11/12 00:50:49;;;;;;;16.20;7.45;;;;;;;0.36;100.00;100191.72;4220730;28;20479;-72
2022/11/12 00:52:53;;;;;;;11.15;7.05;;;;;;;0.38;100.00;100193.06;4219550;28;20363;-72
2022/11/12 00:54:53;;;;;;;8.75;6.40;;;;;;;0.32;100.00;100191.41;4220228;28;20486;-72
2022/11/12 00:56:53;;;;;;;10.15;6.70;;;;;;;0.26;100.00;100189.78;4220323;28;20482;-72
2022/11/12 00:58:54;;;;;;;12.57;7.68;;;;;;;0.21;100.00;100189.78;4220725;28;20140;-72
2022/11/12 01:00:54;;;;;;;12.88;6.93;;;;;;;0.25;100.00;100196.34;4219785;28;20372;-72
2022/11/12 01:02:55;;;;;;;10.85;7.05;;;;;;;0.21;100.00;100192.50;4220328;27;20082;-72
2022/11/12 01:04:55;;;;;;;13.30;7.05;;;;;;;0.18;100.00;100193.84;4220983;27;20048;-72
2022/11/12 01:06:55;;;;;;;10.52;6.18;;;;;;;0.24;100.00;100186.50;4219676;28;20105;-71
2022/11/12 01:08:56;;;;;;;9.20;6.78;;;;;;;0.33;100.00;100201.22;4219687;28;20044;-71
2022/11/12 01:11:04;;;;;;;9.82;6.20;;;;;;;0.43;100.00;100189.56;4220306;28;20773;-72
2022/11/12 01:13:05;;;;;;;9.43;6.15;;;;;;;0.48;100.00;100193.09;4219621;28;20031;-72
2022/11/12 01:15:06;;;;;;;12.00;6.28;;;;;;;0.57;100.00;100188.75;4219610;28;20040;-72
2022/11/12 01:17:06;;;;;;;11.40;7.07;;;;;;;0.63;99.39;100194.22;4220101;28;20081;-72
2022/11/12 01:19:09;;;;;;;10.00;6.03;;;;;;;0.54;98.79;100188.47;4219687;28;20048;-71
2022/11/12 01:21:12;;;;;;;10.68;6.60;;;;;;;0.42;100.00;100188.75;4219948;28;20044;-72
2022/11/12 01:23:12;;;;;;;8.98;6.30;;;;;;;0.38;100.00;100187.63;4219652;28;20032;-72
2022/11/12 01:25:12;;;;;;;8.88;5.43;;;;;;;0.30;98.77;100181.91;4219470;28;20546;-72
2022/11/12 01:27:13;;;;;;;11.30;6.55;;;;;;;0.18;100.00;100185.69;4220069;28;20051;-72
2022/11/12 01:29:13;;;;;;;9.63;6.28;;;;;;;0.12;100.00;100184.03;4219169;28;20051;-72
2022/11/12 01:31:17;;;;;;;10.20;6.68;;;;;;;-0.01;100.00;100174.44;4219812;28;20472;-72
2022/11/12 01:33:18;;;;;;;11.45;6.10;;;;;;;-0.05;100.00;100186.97;4218860;28;20529;-71
2022/11/12 01:35:18;;;;;;;11.05;6.32;;;;;;;-0.06;100.00;100184.53;4219804;28;20039;-71
2022/11/12 01:37:18;;;;;;;9.80;6.78;;;;;;;0.01;100.00;100185.09;4220240;28;20057;-71
2022/11/12 01:39:19;;;;;;;10.57;6.47;;;;;;;0.09;100.00;100194.66;4219797;28;20039;-71
2022/11/12 01:41:25;;;;;;;10.63;6.13;;;;;;;0.18;100.00;100198.47;4219587;28;20039;-71
2022/11/12 01:43:25;;;;;;;14.30;6.43;;;;;;;0.15;100.00;100191.66;4217390;28;20078;-72
2022/11/12 01:45:25;;;;;;;10.48;6.28;;;;;;;0.12;100.00;100194.91;4219738;28;20374;-72
2022/11/12 01:47:28;;;;;;;12.15;6.50;;;;;;;0.08;100.00;100193.81;4219508;28;20050;-72
2022/11/12 01:49:38;;;;;;;13.52;7.05;;;;;;;0.03;100.00;100191.09;4219858;28;20625;-72
2022/11/12 01:51:43;;;;;;;9.88;5.82;;;;;;;-0.05;100.00;100183.44;4219887;28;20150;-72
2022/11/12 01:53:48;;;;;;;11.10;6.18;;;;;;;-0.09;100.00;100187.75;4219281;28;20043;-72
2022/11/12 01:55:49;;;;;;;11.20;6.00;;;;;;;-0.03;100.00;100178.53;4218733;28;20040;-72
2022/11/12 01:58:03;;;;;;;12.70;6.57;;;;;;;-0.04;100.00;100187.78;4219090;28;20088;-72
2022/11/12 02:00:07;;;;;;;14.07;5.60;;;;;;;-0.07;100.00;100191.88;4218778;28;20048;-71
2022/11/12 02:02:09;;;;;;;11.93;6.28;;;;;;;-0.11;100.00;100195.38;4219488;28;20032;-71
2022/11/12 02:04:09;;;;;;;18.00;7.85;;;;;;;-0.16;100.00;100192.66;4220090;28;20039;-72
2022/11/12 02:06:13;;;;;;;11.75;5.97;;;;;;;-0.20;100.00;100194.25;4219727;28;20512;-72
2022/11/12 02:08:14;;;;;;;11.15;6.25;;;;;;;-0.24;100.00;100183.09;4218686;28;20030;-72
2022/11/12 02:10:14;;;;;;;11.25;6.57;;;;;;;-0.26;100.00;100187.94;4219476;28;20343;-71
2022/11/12 02:13:56;;;;;;;13.32;6.05;;;;;;;-0.11;100.00;100200.81;4219687;28;20059;-71
2022/11/12 02:14:35;;;;;;;10.93;6.63;;;;;;;0.01;100.00;100190.53;4219245;28;20042;-71
2022/11/12 02:16:39;;;;;;;11.23;6.60;;;;;;;0.03;100.00;100190.25;4218600;28;21185;-71
2022/11/12 02:18:40;;;;;;;13.52;7.10;;;;;;;0.10;100.00;100191.66;4219206;28;20712;-71
2022/11/12 02:20:40;;;;;;;9.77;6.30;;;;;;;0.12;100.00;100197.63;4219469;28;20097;-72
2022/11/12 02:22:40;;;;;;;11.88;6.60;;;;;;;0.13;100.00;100193.81;4218432;28;20295;-72
2022/11/12 02:24:41;;;;;;;8.27;5.53;;;;;;;0.20;100.00;100196.31;4219220;28;20436;-72
2022/11/12 02:26:50;;;;;;;11.13;6.30;;;;;;;0.22;100.00;100191.41;4219507;28;20084;-71
2022/11/12 02:28:50;;;;;;;9.18;5.30;;;;;;;0.15;100.00;100188.13;4219010;28;20043;-71
2022/11/12 02:30:50;;;;;;;13.52;6.28;;;;;;;0.04;100.00;100191.91;4219598;28;20043;-72
2022/11/12 02:32:51;;;;;;;10.50;6.18;;;;;;;0.01;100.00;100203.31;4218016;28;20043;-72
2022/11/12 02:34:51;;;;;;;12.70;6.20;;;;;;;-0.03;100.00;100194.84;4219376;28;20063;-72
2022/11/12 02:36:51;;;;;;;9.85;5.72;;;;;;;-0.08;100.00;100198.41;4219656;28;20054;-72
2022/11/12 02:38:52;;;;;;;9.68;6.28;;;;;;;0.01;100.00;100200.59;4219180;28;20391;-72
2022/11/12 02:40:52;;;;;;;9.02;6.05;;;;;;;0.01;100.00;100197.88;4219251;28;20088;-72
2022/11/12 02:42:53;;;;;;;11.02;7.07;;;;;;;-0.02;100.00;100196.50;4218089;28;20055;-72
2022/11/12 02:44:53;;;;;;;10.02;6.40;;;;;;;-0.09;100.00;100202.16;4218956;28;20803;-72
2022/11/12 02:46:53;;;;;;;9.27;6.00;;;;;;;-0.10;100.00;100191.56;4218462;28;20433;-72
2022/11/12 02:48:54;;;;;;;8.40;5.95;;;;;;;-0.16;100.00;100198.09;4219373;28;20068;-72
2022/11/12 02:50:54;;;;;;;9.85;6.03;;;;;;;-0.22;100.00;100190.97;4219451;28;20467;-72
2022/11/12 02:52:54;;;;;;;9.15;6.60;;;;;;;-0.29;100.00;100193.94;4217551;28;20506;-72
2022/11/12 02:54:54;;;;;;;12.15;6.03;;;;;;;-0.36;100.00;100201.50;4218900;28;20384;-72
2022/11/12 02:56:55;;;;;;;14.77;6.93;;;;;;;-0.37;100.00;100203.41;4220213;28;20067;-72
2022/11/12 02:58:55;;;;;;;12.57;6.88;;;;;;;-0.40;100.00;100203.13;4222305;28;20078;-72
2022/11/12 03:00:56;;;;;;;10.68;7.43;;;;;;;-0.45;100.00;100200.38;4221918;28;20039;-72
2022/11/12 03:02:57;;;;;;;11.05;7.05;;;;;;;-0.47;100.00;100199.81;4222248;27;20100;-72
2022/11/12 03:04:58;;;;;;;12.02;7.32;;;;;;;-0.50;100.00;100192.19;4222262;28;20040;-72
2022/11/12 03:06:58;;;;;;;12.15;6.18;;;;;;;-0.57;100.00;100192.44;4221929;28;20047;-72
2022/11/12 03:08:58;;;;;;;10.30;6.00;;;;;;;-0.61;100.00;100200.28;4222039;28;20308;-72
2022/11/12 03:11:05;;;;;;;7.53;5.45;;;;;;;-0.66;100.00;100196.72;4222039;28;20040;-72
2022/11/12 03:13:06;;;;;;;7.95;5.43;;;;;;;-0.71;100.00;100197.50;4220428;28;20052;-72
2022/11/12 03:15:06;;;;;;;8.27;5.07;;;;;;;-0.75;100.00;100199.09;4221853;28;20043;-72
2022/11/12 03:17:07;;;;;;;9.82;5.78;;;;;;;-0.77;100.00;100195.81;4222151;28;20380;-72
2022/11/12 03:19:07;;;;;;;9.27;5.10;;;;;;;-0.76;100.00;100192.03;4222186;28;20058;-72
2022/11/12 03:21:07;;;;;;;8.57;5.30;;;;;;;-0.75;100.00;100190.13;4221819;28;20090;-72
2022/11/12 03:23:10;;;;;;;8.35;5.45;;;;;;;-0.70;100.00;100190.97;4221209;28;20051;-71
2022/11/12 03:25:10;;;;;;;9.30;5.97;;;;;;;-0.61;100.00;100194.84;4221251;28;20046;-72
2022/11/12 03:27:10;;;;;;;8.23;5.22;;;;;;;-0.60;100.00;100195.66;4220688;28;20055;-72
2022/11/12 03:29:11;;;;;;;9.60;4.82;;;;;;;-0.52;100.00;100199.78;4221838;28;20055;-72
2022/11/12 03:31:11;;;;;;;6.10;4.15;;;;;;;-0.48;100.00;100198.19;4221567;28;20126;-72
2022/11/12 03:33:14;;;;;;;8.73;4.30;;;;;;;-0.44;100.00;100200.09;4221252;28;20044;-72
2022/11/12 03:35:14;;;;;;;7.35;4.38;;;;;;;-0.47;100.00;100205.28;4221401;28;20040;-72
2022/11/12 03:37:15;;;;;;;9.00;4.35;;;;;;;-0.44;100.00;100200.09;4221584;28;20105;-71
2022/11/12 03:39:15;;;;;;;6.63;4.03;;;;;;;-0.43;100.00;100198.22;4222770;27;20124;-71
2022/11/12 03:41:16;;;;;;;7.38;4.35;;;;;;;-0.42;100.00;100200.66;4221261;28;20051;-71
2022/11/12 03:43:16;;;;;;;7.25;4.47;;;;;;;-0.40;100.00;100200.41;4220696;28;20049;-71
2022/11/12 03:45:18;;;;;;;8.27;4.82;;;;;;;-0.31;100.00;100209.72;4221349;28;20032;-71
2022/11/12 03:47:18;;;;;;;6.43;4.83;;;;;;;-0.29;100.00;100207.53;4221843;28;20043;-71
2022/11/12 03:49:18;;;;;;;6.80;4.68;;;;;;;-0.32;100.00;100210.78;4221552;28;20044;-71
2022/11/12 03:51:20;;;;;;;9.15;5.38;;;;;;;-0.29;100.00;100205.63;4221442;28;20052;-71
2022/11/12 03:53:20;;;;;;;10.07;5.22;;;;;;;-0.28;100.00;100206.44;4221171;28;20754;-71
2022/11/12 03:55:22;;;;;;;9.95;4.82;;;;;;;-0.31;99.81;100217.88;4220614;28;20459;-71
2022/11/12 03:57:22;;;;;;;10.60;4.67;;;;;;;-0.42;100.00;100200.66;4221526;28;20051;-71
2022/11/12 03:59:22;;;;;;;9.95;5.28;;;;;;;-0.54;99.68;100194.63;4220879;28;20036;-72
2022/11/12 04:01:22;;;;;;;9.18;5.97;;;;;;;-0.61;100.00;100196.75;4221081;28;20117;-72
2022/11/12 04:03:23;;;;;;;12.68;6.20;;;;;;;-0.65;100.00;100193.75;4222301;27;20122;-73
2022/11/12 04:10:02;;;;;;;8.02;5.57;;;;;;;-0.58;100.00;100190.78;4220345;28;20062;-72
2022/11/12 04:13:26;;;;;;;13.07;6.35;;;;;;;-0.60;100.00;100196.47;4220757;28;20036;-72
2022/11/12 04:14:23;;;;;;;10.63;5.22;;;;;;;-0.53;100.00;100185.38;4220622;28;20411;-72
2022/11/12 04:23:21;;;;;;;8.25;5.15;;;;;;;-0.34;100.00;100189.28;4219564;28;20050;-72
2022/11/12 04:27:41;;;;;;;8.43;5.60;;;;;;;-0.43;99.37;100187.31;4220862;28;20135;-71
2022/11/12 04:32:01;;;;;;;14.45;5.93;;;;;;;-0.59;99.35;100189.13;4220220;28;20043;-71
2022/11/12 04:34:27;;;;;;;10.77;5.78;;;;;;;-0.65;100.00;100184.78;4219452;28;20039;-72
2022/11/12 04:36:21;;;;;;;9.57;5.90;;;;;;;-0.78;100.00;100187.94;4220591;28;20108;-72
2022/11/12 04:38:21;;;;;;;8.27;5.63;;;;;;;-0.97;100.00;100177.50;4220459;27;20245;-72
2022/11/12 04:45:09;;;;;;;9.43;5.55;;;;;;;-1.02;100.00;100190.22;4220539;28;20045;-71
2022/11/12 04:47:10;;;;;;;10.07;5.60;;;;;;;-0.99;100.00;100181.56;4220323;28;20047;-71
2022/11/12 04:49:10;;;;;;;10.77;5.78;;;;;;;-0.98;100.00;100185.91;4220190;28;20047;-71
2022/11/12 04:53:29;;;;;;;10.93;5.50;;;;;;;-0.90;100.00;100186.25;4219919;28;20034;-71
2022/11/12 04:55:31;;;;;;;8.55;4.88;;;;;;;-0.80;100.00;100181.97;4220167;28;20471;-71
2022/11/12 04:57:31;;;;;;;8.45;5.45;;;;;;;-0.81;100.00;100177.59;4220350;28;20058;-71
2022/11/12 04:59:31;;;;;;;11.68;5.95;;;;;;;-0.79;100.00;100183.59;4220884;28;20142;-71
2022/11/12 05:01:32;;;;;;;11.93;6.00;;;;;;;-0.76;100.00;100181.16;4220537;28;20043;-71
2022/11/12 05:03:32;;;;;;;7.35;5.05;;;;;;;-0.67;100.00;100187.72;4220488;27;20420;-71
2022/11/12 05:05:32;;;;;;;10.38;5.82;;;;;;;-0.67;100.00;100195.06;4220051;28;20516;-71
2022/11/12 05:07:33;;;;;;;8.68;5.07;;;;;;;-0.70;100.00;100198.31;4219686;28;20046;-71
2022/11/12 05:09:33;;;;;;;8.57;5.28;;;;;;;-0.77;100.00;100195.00;4220193;28;20043;-71
2022/11/12 05:11:33;;;;;;;8.93;5.20;;;;;;;-0.83;100.00;100187.91;4220345;28;20327;-71
2022/11/12 05:13:34;;;;;;;8.68;5.20;;;;;;;-0.78;100.00;100198.81;4201097;28;20040;-72
2022/11/12 05:15:34;;;;;;;10.73;4.55;;;;;;;-0.71;100.00;100196.69;4219384;28;20051;-72
2022/11/12 05:17:34;;;;;;;6.45;4.07;;;;;;;-0.69;100.00;100187.19;4220016;28;20498;-71
2022/11/12 05:19:35;;;;;;;9.10;4.90;;;;;;;-0.72;100.00;100198.59;4220288;28;20076;-72
2022/11/12 05:23:54;;;;;;;8.15;4.15;;;;;;;-0.86;100.00;100190.06;4219146;28;20141;-72
2022/11/12 05:25:54;;;;;;;6.32;4.05;;;;;;;-0.82;100.00;100195.81;4220058;28;20079;-72
2022/11/12 05:27:55;;;;;;;6.85;4.38;;;;;;;-0.79;100.00;100187.13;4219875;28;20138;-71
2022/11/12 05:29:55;;;;;;;7.93;4.97;;;;;;;-0.84;100.00;100187.06;4219405;28;20043;-71
2022/11/12 05:31:56;;;;;;;9.15;5.45;;;;;;;-0.94;100.00;100182.41;4219061;28;20118;-71
2022/11/12 05:33:56;;;;;;;9.23;5.55;;;;;;;-1.02;100.00;100179.34;4218779;28;20042;-71
2022/11/12 05:35:56;;;;;;;8.68;5.25;;;;;;;-1.08;100.00;100177.66;4219245;28;20043;-71
2022/11/12 05:37:57;;;;;;;8.82;5.07;;;;;;;-1.16;100.00;100181.66;4220897;27;20055;-71
2022/11/12 05:39:57;;;;;;;8.23;4.80;;;;;;;-1.27;100.00;100178.06;4219693;28;20100;-71
2022/11/12 05:41:58;;;;;;;7.65;4.60;;;;;;;-1.35;100.00;100177.72;4219914;28;20043;-71
2022/11/12 05:43:58;;;;;;;9.68;5.00;;;;;;;-1.46;100.00;100179.53;4218912;28;20733;-71
2022/11/12 05:45:58;;;;;;;9.45;4.90;;;;;;;-1.52;100.00;100170.50;4220035;28;20043;-71
2022/11/12 05:47:59;;;;;;;8.48;4.57;;;;;;;-1.49;100.00;100182.75;4219308;28;20100;-71
2022/11/12 05:49:59;;;;;;;12.82;4.13;;;;;;;-1.45;100.00;100181.97;4219662;28;20078;-71
2022/11/12 05:51:59;;;;;;;12.25;4.43;;;;;;;-1.37;100.00;100175.25;4219307;28;20094;-71
2022/11/12 05:54:00;;;;;;;7.45;4.40;;;;;;;-1.22;100.00;100174.59;4212804;28;20506;-72
2022/11/12 05:56:04;;;;;;;11.90;4.22;;;;;;;-1.22;100.00;100180.84;4213985;28;20123;-71
2022/11/12 05:58:06;;;;;;;9.75;4.10;;;;;;;-1.24;100.00;100174.00;4214420;28;20052;-71
2022/11/12 06:00:07;;;;;;;7.38;4.35;;;;;;;-1.27;100.00;100175.34;4211537;28;20073;-71
2022/11/12 06:02:07;;;;;;;6.75;4.20;;;;;;;-1.37;100.00;100180.69;4217501;28;20371;-71
2022/11/12 06:04:07;;;;;;;8.05;4.63;;;;;;;-1.46;100.00;100184.97;4214755;28;20040;-72
2022/11/12 06:06:08;;;;;;;7.20;4.25;;;;;;;-1.53;100.00;100179.72;4216263;28;20035;-72
2022/11/12 06:08:09;;;;;;;9.57;4.90;;;;;;;-1.56;100.00;100177.53;4217779;28;20122;-71
2022/11/12 06:10:09;;;;;;;9.00;4.07;;;;;;;-1.59;100.00;100183.47;4219000;28;20069;-71
2022/11/12 06:12:10;;;;;;;14.15;5.32;;;;;;;-1.64;100.00;100188.03;4219183;28;20391;-71
2022/11/12 06:14:10;;;;;;;9.85;5.10;;;;;;;-1.68;100.00;100185.00;4218957;28;20030;-71
2022/11/12 06:16:10;;;;;;;11.93;5.22;;;;;;;-1.67;100.00;100191.25;4217558;28;20023;-72
2022/11/12 06:18:11;;;;;;;11.32;5.75;;;;;;;-1.74;100.00;100189.59;4218269;28;20459;-71
2022/11/12 06:20:11;;;;;;;9.05;5.72;;;;;;;-1.76;100.00;100191.72;4219399;28;20690;-71
2022/11/12 06:22:12;;;;;;;11.57;6.25;;;;;;;-1.76;100.00;100197.13;4218922;28;20031;-71
2022/11/12 06:24:12;;;;;;;12.05;6.13;;;;;;;-1.78;100.00;100193.88;4218494;28;20031;-71
2022/11/12 06:26:12;;;;;;;14.13;7.50;;;;;;;-1.70;100.00;100195.31;4219128;28;20104;-71
2022/11/12 06:28:13;;;;;;;17.23;7.88;;;;;;;-1.71;100.00;100194.47;4219679;28;20023;-71
2022/11/12 06:30:13;;;;;;;12.45;6.88;;;;;;;-1.65;100.00;100187.22;4218801;28;20407;-71
2022/11/12 06:32:13;;;;;;;13.48;7.15;;;;;;;-1.64;100.00;100197.00;4202511;28;20051;-71
2022/11/12 06:34:14;;;;;;;12.70;6.93;;;;;;;-1.58;100.00;100197.84;4221521;28;20062;-72
2022/11/12 06:36:17;;;;;;;14.55;6.72;;;;;;;-1.54;100.00;100193.56;4222621;28;20032;-71
2022/11/12 06:38:17;;;;;;;9.98;6.00;;;;;;;-1.52;100.00;100196.84;4222844;28;20147;-71
2022/11/12 06:40:17;;;;;;;14.38;6.43;;;;;;;-1.43;100.00;100200.72;4219561;28;20114;-72
2022/11/12 06:42:18;;;;;;;11.18;6.65;;;;;;;-1.35;100.00;100199.44;4219427;28;20058;-72
2022/11/12 06:44:18;;;;;;;18.80;7.80;;;;;;;-1.28;100.00;100208.19;4220070;28;20415;-71
2022/11/12 06:46:18;;;;;;;13.68;7.35;;;;;;;-1.16;100.00;100204.25;4221318;28;20355;-71
2022/11/12 06:48:19;;;;;;;14.75;7.18;;;;;;;-1.16;100.00;100206.97;4220101;28;20471;-71
2022/11/12 06:50:19;;;;;;;12.57;6.70;;;;;;;-1.17;100.00;100212.63;4219373;28;20463;-71
2022/11/12 06:52:19;;;;;;;15.75;6.57;;;;;;;-1.16;100.00;100212.41;4220202;28;20509;-71
2022/11/12 06:54:20;;;;;;;11.63;5.95;;;;;;;-1.08;100.00;100215.69;4161483;27;20039;-71
2022/11/12 06:56:20;;;;;;;7.85;4.97;;;;;;;-1.12;100.00;100215.41;4221931;28;20082;-71
2022/11/12 06:58:20;;;;;;;8.98;5.88;;;;;;;-1.14;100.00;100226.53;4221605;28;20444;-71
2022/11/12 07:00:20;;;;;;;10.10;5.30;;;;;;;-1.17;100.00;100229.75;4222129;28;20535;-71
2022/11/12 07:02:21;;;;;;;9.68;5.68;;;;;;;-1.19;100.00;100223.75;4221844;28;20321;-71
2022/11/12 07:04:23;;;;;;;9.38;6.35;;;;;;;-1.24;100.00;100226.44;4221566;27;20043;-71
2022/11/12 07:06:24;;;;;;;12.52;6.35;;;;;;;-1.25;100.00;100223.97;4222183;28;20788;-71
2022/11/12 07:08:24;;;;;;;9.98;6.03;;;;;;;-1.24;100.00;100229.16;4221298;28;20180;-72
2022/11/12 07:10:24;;;;;;;11.73;6.50;;;;;;;-1.26;100.00;100227.75;4221589;28;20152;-71
2022/11/12 07:12:24;;;;;;;10.98;6.72;;;;;;;-1.34;100.00;100225.50;4221851;28;20432;-72
2022/11/12 07:14:25;;;;;;;9.35;5.20;;;;;;;-1.44;100.00;100221.63;4221366;28;20663;-71
2022/11/12 07:16:25;;;;;;;11.90;6.53;;;;;;;-1.37;100.00;100220.59;4221117;28;20131;-71
2022/11/12 07:18:27;;;;;;;9.82;5.45;;;;;;;-1.31;100.00;100233.16;4219101;28;20035;-71
2022/11/12 07:20:27;;;;;;;12.07;6.70;;;;;;;-1.26;100.00;100227.75;4221163;28;20050;-71
2022/11/12 07:22:27;;;;;;;11.90;6.00;;;;;;;-1.19;100.00;100221.03;4221552;28;20028;-71
2022/11/12 07:24:28;;;;;;;13.70;6.45;;;;;;;-1.03;100.00;100229.31;4221467;28;20468;-71
2022/11/12 07:26:28;;;;;;;8.95;6.35;;;;;;;-0.90;100.00;100231.63;4221694;28;20098;-71
2022/11/12 07:28:29;;;;;;;10.10;6.00;;;;;;;-0.87;100.00;100221.03;4218165;28;20036;-71
2022/11/12 07:30:29;;;;;;;19.52;5.68;;;;;;;-0.89;100.00;100227.81;4219088;28;20040;-72
2022/11/12 07:32:30;;;;;;;6.53;4.82;;;;;;;-0.93;100.00;100218.53;4219922;28;20044;-71
2022/11/12 07:34:30;;;;;;;8.98;4.85;;;;;;;-0.97;100.00;100214.72;4221375;28;20047;-71
2022/11/12 07:36:30;;;;;;;7.78;5.40;;;;;;;-1.03;100.00;100215.75;4221511;28;20396;-71
2022/11/12 07:38:33;;;;;;;16.38;10.00;;;;;;;-1.11;100.00;100213.50;4221593;28;20047;-71
2022/11/12 07:40:33;;;;;;;;;;;;;;;-1.17;100.00;100216.16;4221956;28;20047;-71
2022/11/12 07:42:34;;;;;;;12.07;6.05;;;;;;;-1.18;100.00;100216.44;4220789;28;20370;-72
2022/11/12 07:44:34;;;;;;;13.20;6.60;;;;;;;-1.04;100.00;100227.69;4221561;28;20342;-72
2022/11/12 07:46:35;;;;;;;13.07;7.10;;;;;;;-1.00;100.00;100234.22;4221024;28;20047;-71
2022/11/12 07:48:36;;;;;;;10.45;6.68;;;;;;;-0.93;100.00;100222.06;4221405;28;20479;-71
2022/11/12 07:50:36;;;;;;;10.75;6.60;;;;;;;-0.87;100.00;100228.38;4220446;28;20268;-71
2022/11/12 07:52:36;;;;;;;14.15;6.28;;;;;;;-0.82;100.00;100227.59;4219363;28;20361;-71
2022/11/12 07:54:37;;;;;;;10.95;6.63;;;;;;;-0.77;100.00;100223.00;4221565;28;20382;-71
2022/11/12 07:56:37;;;;;;;13.07;7.20;;;;;;;-0.86;100.00;100211.81;4220610;28;20133;-71
2022/11/12 07:58:38;;;;;;;14.25;6.95;;;;;;;-0.91;100.00;100214.50;4221523;28;20147;-71
2022/11/12 08:00:38;;;;;;;10.38;7.65;;;;;;;-0.95;100.00;100204.41;4221593;28;20052;-71
2022/11/12 08:02:39;;;;;;;16.35;6.97;;;;;;;-0.89;100.00;100209.63;4219843;28;20114;-71
2022/11/12 08:04:39;;;;;;;14.18;7.45;;;;;;;-0.90;100.00;100204.44;4218384;27;20506;-71
2022/11/12 08:06:39;;;;;;;15.93;9.57;;;;;;;-0.87;100.00;100203.91;4218534;27;20096;-71
2022/11/12 08:08:39;;;;;;;14.13;10.40;;;;;;;-0.89;100.00;100196.03;4221062;28;20120;-72
2022/11/12 08:10:40;;;;;;;23.67;9.48;;;;;;;-0.88;100.00;100199.56;4220834;28;20820;-71
2022/11/12 08:12:40;;;;;;;12.65;9.43;;;;;;;-0.85;100.00;100212.63;4220152;28;20417;-71
2022/11/12 08:14:40;;;;;;;22.38;11.40;;;;;;;-0.82;100.00;100217.56;4221428;28;20067;-71
2022/11/12 08:16:41;;;;;;;26.38;11.07;;;;;;;-0.78;100.00;100221.38;4220431;28;20404;-71
2022/11/12 08:18:42;;;;;;;19.40;11.25;;;;;;;-0.65;100.00;100226.38;4221235;28;20044;-71
2022/11/12 08:20:43;;;;;;;16.15;10.35;;;;;;;-0.53;100.00;100218.00;4220765;28;20051;-71
2022/11/12 08:22:43;;;;;;;15.90;9.68;;;;;;;-0.44;100.00;100224.59;4220419;28;20047;-71
2022/11/12 08:24:43;;;;;;;19.10;9.45;;;;;;;-0.41;100.00;100221.34;4219782;28;20071;-71
2022/11/12 08:26:44;;;;;;;15.38;9.20;;;;;;;-0.38;100.00;100226.25;4219384;28;20482;-71
2022/11/12 08:28:44;;;;;;;15.20;9.38;;;;;;;-0.34;100.00;100226.53;4219936;28;20095;-71
2022/11/12 08:30:45;;;;;;;16.25;10.35;;;;;;;-0.32;100.00;100221.69;4220271;28;20347;-71
2022/11/12 08:32:45;;;;;;;21.27;13.43;;;;;;;-0.32;100.00;100216.22;4218420;28;20039;-71
2022/11/12 08:34:45;;;;;;;23.90;14.48;;;;;;;-0.23;100.00;100230.16;4220599;28;20064;-71
2022/11/12 08:36:45;;;;;;;26.63;16.80;;;;;;;-0.21;100.00;100223.34;4219341;28;20491;-71
2022/11/12 08:38:46;;;;;;;23.58;12.98;;;;;;;-0.19;100.00;100232.06;4203738;28;20101;-71
2022/11/12 08:40:46;;;;;;;55.63;20.40;;;;;;;-0.13;100.00;100241.06;4216873;28;20126;-71
2022/11/12 08:42:46;;;;;;;29.02;15.85;;;;;;;-0.07;100.00;100227.25;4219980;28;20259;-71
2022/11/12 08:44:47;;;;;;;23.17;13.07;;;;;;;0.02;100.00;100230.28;4220218;28;20124;-71
2022/11/12 08:46:49;;;;;;;21.20;11.38;;;;;;;0.10;100.00;100218.06;4219538;28;20040;-71
2022/11/12 08:48:49;;;;;;;32.43;10.30;;;;;;;0.20;100.00;100223.53;4220698;28;20043;-71
2022/11/12 08:50:49;;;;;;;27.92;12.70;;;;;;;0.35;100.00;100223.56;4220618;28;20381;-72
2022/11/12 08:52:49;;;;;;;43.33;20.08;;;;;;;0.46;100.00;100219.78;4220136;28;20048;-71
2022/11/12 08:54:50;;;;;;;22.63;12.93;;;;;;;0.56;100.00;100227.97;4220054;28;20498;-71
2022/11/12 08:56:50;;;;;;;21.08;10.82;;;;;;;0.68;100.00;100218.75;4210981;28;20050;-71
2022/11/12 08:58:50;;;;;;;18.83;10.70;;;;;;;0.77;100.00;100223.38;4209864;28;20051;-71
2022/11/12 09:00:51;;;;;;;31.38;14.38;;;;;;;0.93;100.00;100223.41;4211788;28;20048;-71
2022/11/12 09:02:51;;;;;;;23.85;13.27;;;;;;;1.08;100.00;100223.41;4218915;27;20616;-71
2022/11/12 09:04:52;;;;;;;24.98;11.52;;;;;;;1.23;100.00;100217.09;4190657;28;20123;-71
2022/11/12 09:06:53;;;;;;;19.00;9.10;;;;;;;1.33;100.00;100204.31;4218536;28;20374;-72
2022/11/12 09:08:53;;;;;;;16.02;9.55;;;;;;;1.52;100.00;100211.91;4218290;28;20361;-71
2022/11/12 09:10:53;;;;;;;16.23;10.30;;;;;;;1.69;100.00;100202.31;4215761;28;20518;-71
2022/11/12 09:12:54;;;;;;;19.10;10.63;;;;;;;1.83;100.00;100199.81;4216712;28;20070;-71
2022/11/12 09:14:55;;;;;;;15.57;9.48;;;;;;;1.99;100.00;100203.31;4216324;28;20196;-71
2022/11/12 09:16:55;;;;;;;12.90;8.88;;;;;;;2.14;100.00;100202.41;4216284;28;20204;-71
2022/11/12 09:18:55;;;;;;;15.75;9.07;;;;;;;2.26;100.00;100202.91;4218608;28;20081;-71
2022/11/12 09:21:01;;;;;;;14.50;8.73;;;;;;;2.40;100.00;100203.06;4217994;28;20086;-71
2022/11/12 09:23:04;;;;;;;22.33;9.50;;;;;;;2.54;100.00;100191.25;4210393;28;20043;-71
2022/11/12 09:25:05;;;;;;;14.02;8.40;;;;;;;2.68;99.99;100190.63;4215704;28;20499;-71
2022/11/12 09:27:05;;;;;;;11.18;7.63;;;;;;;2.86;99.81;100197.31;4216887;28;20065;-71
2022/11/12 09:29:05;;;;;;;11.95;7.28;;;;;;;3.01;99.82;100200.75;4218392;28;20071;-71
2022/11/12 09:31:07;;;;;;;12.43;7.55;;;;;;;3.20;99.37;100209.06;4218805;28;20126;-71
2022/11/12 09:33:07;;;;;;;14.00;7.38;;;;;;;3.31;98.64;100202.41;4218012;28;20055;-71
2022/11/12 09:35:08;;;;;;;11.57;7.45;;;;;;;3.42;98.40;100203.13;4219203;28;20517;-71
2022/11/12 09:37:08;;;;;;;12.68;6.60;;;;;;;3.50;97.09;100199.75;4220279;28;20043;-71
2022/11/12 09:39:08;;;;;;;12.68;7.57;;;;;;;3.65;96.19;100187.84;4219703;27;20476;-71